Time;durP1;ratioP1;P1;durP2;ratioP2;P2;SDS_P1;SDS_P2;PMS_P1;PMS_P2;Temp;Humidity;BMP_temperature;BMP_pressure;BME280_temperature;BME280_humidity;BME280_pressure;Samples;Min_cycle;Max_cycle;Signal;HPM_P1;HPM_P2
2023/04/21 00:02:56;;;;;;;;;;;8.87;32.60;;;;;;2671707;76;20456;-90
2023/04/21 00:06:25;;;;;;;;;;;8.86;32.61;;;;;;2670903;76;20463;-89
2023/04/21 00:09:53;;;;;;;;;;;8.82;32.57;;;;;;2671031;76;20484;-90
2023/04/21 00:13:22;;;;;;;;;;;8.87;32.79;;;;;;2670838;76;20411;-90
2023/04/21 00:16:51;;;;;;;;;;;8.89;32.85;;;;;;2670061;76;20721;-90
2023/04/21 00:20:19;;;;;;;;;;;8.86;32.62;;;;;;2670290;76;20467;-90
2023/04/21 00:23:48;;;;;;;;;;;8.87;32.76;;;;;;2670522;76;20423;-90
2023/04/21 00:27:16;;;;;;;;;;;8.91;33.01;;;;;;2670621;76;20963;-89
2023/04/21 00:30:45;;;;;;;;;;;8.91;32.92;;;;;;2670510;76;21551;-89
2023/04/21 00:34:13;;;;;;;;;;;8.90;32.85;;;;;;2671013;76;20410;-90
2023/04/21 00:37:41;;;;;;;;;;;8.91;33.01;;;;;;2672705;76;20312;-90
2023/04/21 00:41:09;;;;;;;;;;;8.94;33.27;;;;;;2671902;76;20466;-90
2023/04/21 00:44:37;;;;;;;;;;;8.95;33.15;;;;;;2670349;76;20318;-90
2023/04/21 00:48:05;;;;;;;;;;;8.95;33.17;;;;;;2670962;76;20308;-90
2023/04/21 00:51:33;;;;;;;;;;;8.95;33.34;;;;;;2671131;76;20312;-89
2023/04/21 00:55:01;;;;;;;;;;;8.91;32.99;;;;;;2670619;76;20419;-90
2023/04/21 00:58:29;;;;;;;;;;;8.90;33.22;;;;;;2671070;76;20433;-90
2023/04/21 01:01:57;;;;;;;;;;;8.89;33.11;;;;;;2670769;76;20927;-89
2023/04/21 01:05:26;;;;;;;;;;;8.83;33.40;;;;;;2670452;76;20948;-90
2023/04/21 01:08:54;;;;;;;;;;;8.90;33.68;;;;;;2670732;76;20783;-90
2023/04/21 01:12:22;;;;;;;;;;;8.95;33.59;;;;;;2671732;76;20461;-90
2023/04/21 01:15:50;;;;;;;;;;;8.87;32.82;;;;;;2670602;76;20294;-90
2023/04/21 01:19:19;;;;;;;;;;;8.90;33.15;;;;;;2670204;76;20411;-89
2023/04/21 01:22:48;;;;;;;;;;;8.91;33.44;;;;;;2670176;76;20418;-88
2023/04/21 01:26:16;;;;;;;;;;;8.97;33.48;;;;;;2670635;76;20422;-90
2023/04/21 01:29:45;;;;;;;;;;;8.94;33.44;;;;;;2669923;76;20416;-89
2023/04/21 01:33:13;;;;;;;;;;;8.89;33.03;;;;;;2669214;76;20449;-90
2023/04/21 01:36:42;;;;;;;;;;;8.88;33.46;;;;;;2669702;76;20438;-89
2023/04/21 01:40:10;;;;;;;;;;;8.87;33.34;;;;;;2669379;76;20433;-89
2023/04/21 01:43:38;;;;;;;;;;;8.91;33.64;;;;;;2670287;76;20419;-90
2023/04/21 01:47:06;;;;;;;;;;;8.87;32.85;;;;;;2670137;76;20434;-90
2023/04/21 01:50:34;;;;;;;;;;;8.86;33.35;;;;;;2670280;76;20469;-89
2023/04/21 01:54:02;;;;;;;;;;;8.86;33.33;;;;;;2669940;76;20459;-90
2023/04/21 01:57:30;;;;;;;;;;;8.88;33.72;;;;;;2670480;76;20417;-89
2023/04/21 02:00:58;;;;;;;;;;;8.92;33.75;;;;;;2669909;76;20426;-89
2023/04/21 02:04:27;;;;;;;;;;;8.92;33.57;;;;;;2670141;76;20437;-90
2023/04/21 02:07:55;;;;;;;;;;;8.89;33.58;;;;;;2669513;76;20455;-89
2023/04/21 02:11:24;;;;;;;;;;;8.93;33.92;;;;;;2669835;76;20577;-90
2023/04/21 02:14:52;;;;;;;;;;;8.95;33.98;;;;;;2669644;76;20463;-89
2023/04/21 02:18:20;;;;;;;;;;;8.87;33.08;;;;;;2669538;76;21684;-90
2023/04/21 02:21:48;;;;;;;;;;;8.82;33.46;;;;;;2670021;76;20419;-91
2023/04/21 02:25:24;;;;;;;;;;;8.88;33.84;;;;;;2669984;76;20458;-91
2023/04/21 02:28:46;;;;;;;;;;;8.91;33.75;;;;;;2670470;76;20424;-90
2023/04/21 02:32:14;;;;;;;;;;;8.89;33.64;;;;;;2669841;76;20934;-89
2023/04/21 02:35:42;;;;;;;;;;;8.86;33.40;;;;;;2670140;76;20991;-91
2023/04/21 02:39:11;;;;;;;;;;;8.83;33.05;;;;;;2670268;76;20891;-90
2023/04/21 02:42:39;;;;;;;;;;;8.78;33.05;;;;;;2669899;76;20433;-91
2023/04/21 02:46:07;;;;;;;;;;;8.76;33.02;;;;;;2669406;76;20457;-90
2023/04/21 02:49:35;;;;;;;;;;;8.73;32.76;;;;;;2670366;76;20415;-89
2023/04/21 02:53:03;;;;;;;;;;;8.70;32.77;;;;;;2670796;76;20326;-89
2023/04/21 02:56:33;;;;;;;;;;;8.64;32.51;;;;;;2670316;76;20463;-90
2023/04/21 03:00:01;;;;;;;;;;;8.63;32.89;;;;;;2669210;76;20422;-89
2023/04/21 03:03:29;;;;;;;;;;;8.59;32.54;;;;;;2670440;76;20415;-91
2023/04/21 03:06:57;;;;;;;;;;;8.53;32.54;;;;;;2670702;76;20917;-90
2023/04/21 03:10:25;;;;;;;;;;;8.51;32.66;;;;;;2670147;76;20809;-90
2023/04/21 03:13:53;;;;;;;;;;;8.51;32.78;;;;;;2670688;76;20949;-90
2023/04/21 03:17:21;;;;;;;;;;;8.49;32.63;;;;;;2670099;76;20424;-90
2023/04/21 03:20:50;;;;;;;;;;;8.49;32.45;;;;;;2670652;76;20454;-90
2023/04/21 03:24:18;;;;;;;;;;;8.46;32.27;;;;;;2670508;76;20463;-90
2023/04/21 03:27:46;;;;;;;;;;;8.51;32.73;;;;;;2670051;76;20440;-90
2023/04/21 03:31:14;;;;;;;;;;;8.56;32.73;;;;;;2670519;76;20413;-90
2023/04/21 03:34:42;;;;;;;;;;;8.59;32.53;;;;;;2670115;76;20423;-90
2023/04/21 03:38:10;;;;;;;;;;;8.57;32.57;;;;;;2670658;76;20432;-88
2023/04/21 03:41:38;;;;;;;;;;;8.53;32.57;;;;;;2670147;76;20500;-89
2023/04/21 03:45:06;;;;;;;;;;;8.55;32.62;;;;;;2670818;76;20426;-90
2023/04/21 03:48:34;;;;;;;;;;;8.52;32.44;;;;;;2670290;76;20422;-90
2023/04/21 03:52:03;;;;;;;;;;;8.53;32.64;;;;;;2669824;76;20419;-90
2023/04/21 03:55:31;;;;;;;;;;;8.48;32.10;;;;;;2670075;76;20429;-89
2023/04/21 03:58:59;;;;;;;;;;;8.45;32.41;;;;;;2669720;76;20428;-88
2023/04/21 04:02:32;;;;;;;;;;;8.43;32.16;;;;;;2669208;76;20430;-90
2023/04/21 04:05:57;;;;;;;;;;;8.43;32.06;;;;;;2670129;76;20445;-90
2023/04/21 04:09:25;;;;;;;;;;;8.39;31.87;;;;;;2669332;76;20411;-90
2023/04/21 04:12:54;;;;;;;;;;;8.37;31.85;;;;;;2669917;76;20703;-91
2023/04/21 04:16:22;;;;;;;;;;;8.35;31.96;;;;;;2670137;76;20940;-90
2023/04/21 04:19:50;;;;;;;;;;;8.34;31.99;;;;;;2669394;76;20956;-90
2023/04/21 04:23:18;;;;;;;;;;;8.33;31.95;;;;;;2670172;76;20891;-90
2023/04/21 04:26:46;;;;;;;;;;;8.34;31.98;;;;;;2670127;76;20500;-90
2023/04/21 04:30:14;;;;;;;;;;;8.42;32.44;;;;;;2668922;76;20474;-89
2023/04/21 04:33:42;;;;;;;;;;;8.47;32.45;;;;;;2668847;76;20415;-90
2023/04/21 04:37:11;;;;;;;;;;;8.46;32.11;;;;;;2670011;76;20418;-90
2023/04/21 04:40:41;;;;;;;;;;;8.46;31.84;;;;;;2669777;76;21263;-91
2023/04/21 04:44:10;;;;;;;;;;;8.47;31.33;;;;;;2670052;76;20462;-91
2023/04/21 04:47:38;;;;;;;;;;;8.46;31.02;;;;;;2670478;76;20605;-90
2023/04/21 04:51:06;;;;;;;;;;;8.48;30.96;;;;;;2670954;76;20957;-90
2023/04/21 04:54:34;;;;;;;;;;;8.48;30.67;;;;;;2670285;76;20942;-91
2023/04/21 04:58:02;;;;;;;;;;;8.50;30.22;;;;;;2670700;76;20415;-91
2023/04/21 05:01:30;;;;;;;;;;;8.50;30.19;;;;;;2670673;76;20445;-90
2023/04/21 05:04:59;;;;;;;;;;;8.51;29.90;;;;;;2670781;76;20415;-90
2023/04/21 05:08:27;;;;;;;;;;;8.61;30.10;;;;;;2670259;76;20491;-89
2023/04/21 05:11:55;;;;;;;;;;;8.76;29.87;;;;;;2669026;76;20461;-91
2023/04/21 05:15:23;;;;;;;;;;;8.83;29.68;;;;;;2671326;76;20415;-90
2023/04/21 05:18:52;;;;;;;;;;;8.93;29.82;;;;;;2671112;76;20564;-89
2023/04/21 05:22:21;;;;;;;;;;;9.05;29.90;;;;;;2671857;76;20648;-90
2023/04/21 05:25:49;;;;;;;;;;;9.15;29.91;;;;;;2671427;76;20431;-90
2023/04/21 05:29:17;;;;;;;;;;;9.39;30.81;;;;;;2672019;76;20885;-91
2023/04/21 05:32:45;;;;;;;;;;;9.61;30.90;;;;;;2671949;76;20935;-91
2023/04/21 05:36:13;;;;;;;;;;;9.78;30.78;;;;;;2670169;76;20438;-90
2023/04/21 05:39:41;;;;;;;;;;;9.91;30.48;;;;;;2670763;76;20336;-90
2023/04/21 05:43:10;;;;;;;;;;;9.95;30.29;;;;;;2671974;76;20452;-90
2023/04/21 05:46:38;;;;;;;;;;;10.03;30.29;;;;;;2671553;76;20438;-91
2023/04/21 05:50:06;;;;;;;;;;;10.14;30.45;;;;;;2670861;76;20537;-90
2023/04/21 05:53:34;;;;;;;;;;;10.21;29.77;;;;;;2671060;76;20915;-91
2023/04/21 05:57:04;;;;;;;;;;;10.26;29.47;;;;;;2671944;76;20878;-90
2023/04/21 06:00:32;;;;;;;;;;;10.44;29.96;;;;;;2672865;76;20790;-89
2023/04/21 06:04:00;;;;;;;;;;;10.53;29.66;;;;;;2671692;76;20439;-91
2023/04/21 06:07:28;;;;;;;;;;;10.65;29.29;;;;;;2672433;76;20466;-90
2023/04/21 06:10:56;;;;;;;;;;;10.74;28.72;;;;;;2672938;76;20419;-91
2023/04/21 06:14:29;;;;;;;;;;;11.02;29.00;;;;;;2672728;76;20435;-90
2023/04/21 06:17:54;;;;;;;;;;;11.46;28.90;;;;;;2672190;76;20471;-90
2023/04/21 06:21:26;;;;;;;;;;;11.92;28.42;;;;;;2672517;76;20462;-91
2023/04/21 06:24:52;;;;;;;;;;;12.29;27.79;;;;;;2672600;76;20414;-91
2023/04/21 06:28:21;;;;;;;;;;;12.47;27.23;;;;;;2671770;76;20401;-91
2023/04/21 06:31:49;;;;;;;;;;;12.70;27.52;;;;;;2671385;76;20715;-91
2023/04/21 06:35:19;;;;;;;;;;;13.06;26.97;;;;;;2671443;76;20437;-91
2023/04/21 06:38:47;;;;;;;;;;;13.38;26.98;;;;;;2671601;76;20423;-91
2023/04/21 06:42:15;;;;;;;;;;;13.73;25.40;;;;;;2671430;76;20425;-91
2023/04/21 06:45:45;;;;;;;;;;;13.81;24.46;;;;;;2671138;76;20315;-91
2023/04/21 06:49:13;;;;;;;;;;;13.80;24.32;;;;;;2671164;76;20419;-91
2023/04/21 06:52:41;;;;;;;;;;;13.88;24.43;;;;;;2671902;76;20310;-91
2023/04/21 06:56:09;;;;;;;;;;;13.98;24.01;;;;;;2671497;76;20416;-92
2023/04/21 06:59:37;;;;;;;;;;;14.09;21.84;;;;;;2670559;76;20297;-91
2023/04/21 07:03:06;;;;;;;;;;;14.34;22.58;;;;;;2671707;76;20296;-91
2023/04/21 07:06:34;;;;;;;;;;;14.70;22.96;;;;;;2671811;76;20296;-91
2023/04/21 07:10:02;;;;;;;;;;;15.06;23.78;;;;;;2671152;76;21118;-91
2023/04/21 07:13:30;;;;;;;;;;;15.23;23.53;;;;;;2672257;76;20745;-91
2023/04/21 07:16:58;;;;;;;;;;;14.88;19.57;;;;;;2672097;76;20427;-92
2023/04/21 07:20:29;;;;;;;;;;;14.81;20.31;;;;;;2671177;76;20418;-91
2023/04/21 07:23:57;;;;;;;;;;;14.73;20.25;;;;;;2671763;76;20312;-91
2023/04/21 07:27:25;;;;;;;;;;;14.89;21.03;;;;;;2671909;76;20477;-91
2023/04/21 07:30:53;;;;;;;;;;;14.98;21.44;;;;;;2672054;76;20303;-92
2023/04/21 07:34:21;;;;;;;;;;;15.11;21.56;;;;;;2672035;76;20317;-92
2023/04/21 07:37:49;;;;;;;;;;;14.88;18.73;;;;;;2671698;76;20467;-91
2023/04/21 07:41:18;;;;;;;;;;;14.63;19.00;;;;;;2671927;76;20309;-91
2023/04/21 07:44:47;;;;;;;;;;;14.26;18.48;;;;;;2671110;76;20426;-91
2023/04/21 07:48:15;;;;;;;;;;;14.60;20.69;;;;;;2671735;76;20533;-91
2023/04/21 07:51:43;;;;;;;;;;;14.60;18.97;;;;;;2672173;76;20783;-91
2023/04/21 07:55:11;;;;;;;;;;;15.00;20.71;;;;;;2671420;76;20301;-91
2023/04/21 07:58:40;;;;;;;;;;;15.27;20.91;;;;;;2671778;76;20452;-91
2023/04/21 08:02:08;;;;;;;;;;;15.10;20.02;;;;;;2671657;76;20317;-91
2023/04/21 08:05:36;;;;;;;;;;;14.94;19.31;;;;;;2671675;76;20450;-91
2023/04/21 08:09:04;;;;;;;;;;;15.15;20.47;;;;;;2671072;76;20759;-91
2023/04/21 08:12:32;;;;;;;;;;;15.44;19.40;;;;;;2672340;76;20783;-91
2023/04/21 08:16:00;;;;;;;;;;;15.65;18.83;;;;;;2672469;76;20780;-92
2023/04/21 08:19:30;;;;;;;;;;;15.72;17.11;;;;;;2672042;76;20745;-92
2023/04/21 08:22:58;;;;;;;;;;;16.14;19.05;;;;;;2672369;76;20880;-92
2023/04/21 08:26:28;;;;;;;;;;;16.54;19.36;;;;;;2671132;76;20472;-91
2023/04/21 08:29:57;;;;;;;;;;;16.46;15.27;;;;;;2671405;76;20332;-91
2023/04/21 08:33:25;;;;;;;;;;;16.77;16.43;;;;;;2672164;76;20315;-90
2023/04/21 08:36:53;;;;;;;;;;;17.02;18.24;;;;;;2672681;76;20325;-91
2023/04/21 08:40:22;;;;;;;;;;;16.94;17.37;;;;;;2672568;76;20395;-92
2023/04/21 08:43:50;;;;;;;;;;;17.04;18.20;;;;;;2672050;76;20456;-91
2023/04/21 08:47:19;;;;;;;;;;;16.60;17.47;;;;;;2672877;76;20447;-92
2023/04/21 08:50:47;;;;;;;;;;;16.36;17.02;;;;;;2672691;76;20425;-92
2023/04/21 08:54:15;;;;;;;;;;;16.12;17.90;;;;;;2672001;76;20438;-90
2023/04/21 08:57:43;;;;;;;;;;;15.67;17.67;;;;;;2672534;76;20423;-91
2023/04/21 09:01:11;;;;;;;;;;;15.48;18.20;;;;;;2672100;76;20893;-91
2023/04/21 09:04:39;;;;;;;;;;;15.44;18.17;;;;;;2672077;76;20435;-91
2023/04/21 09:08:12;;;;;;;;;;;15.01;17.76;;;;;;2672995;76;20443;-92
2023/04/21 09:11:37;;;;;;;;;;;14.67;18.29;;;;;;2671533;76;20448;-90
2023/04/21 09:15:08;;;;;;;;;;;14.33;17.58;;;;;;2671811;76;20870;-91
2023/04/21 09:18:36;;;;;;;;;;;14.38;18.27;;;;;;2672312;76;20449;-91
2023/04/21 09:22:04;;;;;;;;;;;14.57;19.21;;;;;;2672294;76;20890;-91
2023/04/21 09:25:35;;;;;;;;;;;14.73;18.65;;;;;;2672462;76;20421;-91
2023/04/21 09:29:04;;;;;;;;;;;14.80;15.26;;;;;;2671938;76;20414;-90
2023/04/21 09:32:32;;;;;;;;;;;15.26;17.06;;;;;;2672512;76;20687;-91
2023/04/21 09:36:00;;;;;;;;;;;15.41;16.31;;;;;;2672206;76;21276;-92
2023/04/21 09:39:29;;;;;;;;;;;15.42;17.82;;;;;;2672326;76;20435;-92
2023/04/21 09:42:57;;;;;;;;;;;15.27;18.60;;;;;;2672476;76;20397;-91
2023/04/21 09:46:25;;;;;;;;;;;15.26;17.77;;;;;;2671712;76;20308;-90
2023/04/21 09:49:53;;;;;;;;;;;15.11;19.03;;;;;;2671807;76;20392;-91
2023/04/21 09:53:21;;;;;;;;;;;15.07;18.64;;;;;;2672507;76;20433;-91
2023/04/21 09:56:50;;;;;;;;;;;15.14;19.08;;;;;;2672808;76;20419;-91
2023/04/21 10:00:18;;;;;;;;;;;15.13;17.64;;;;;;2671220;76;20431;-91
2023/04/21 10:03:46;;;;;;;;;;;15.29;17.63;;;;;;2671815;76;20414;-91
2023/04/21 10:07:15;;;;;;;;;;;15.68;19.00;;;;;;2671837;76;20434;-91
2023/04/21 10:10:45;;;;;;;;;;;15.56;18.72;;;;;;2671183;76;20402;-92
2023/04/21 10:14:13;;;;;;;;;;;15.41;18.46;;;;;;2670892;76;20438;-90
2023/04/21 10:17:41;;;;;;;;;;;15.37;19.02;;;;;;2670691;76;20415;-90
2023/04/21 10:21:09;;;;;;;;;;;15.37;18.52;;;;;;2671215;76;20462;-90
2023/04/21 10:24:37;;;;;;;;;;;15.31;18.44;;;;;;2671091;76;20427;-91
2023/04/21 10:28:05;;;;;;;;;;;15.30;17.45;;;;;;2671286;76;20419;-88
2023/04/21 10:31:34;;;;;;;;;;;15.39;17.72;;;;;;2671027;76;20425;-91
2023/04/21 10:35:02;;;;;;;;;;;15.58;18.38;;;;;;2670470;76;21152;-89
2023/04/21 10:38:30;;;;;;;;;;;15.66;19.70;;;;;;2670533;76;20455;-91
2023/04/21 10:41:59;;;;;;;;;;;15.63;18.03;;;;;;2671003;76;20419;-89
2023/04/21 10:45:27;;;;;;;;;;;15.71;17.78;;;;;;2670881;76;20427;-91
2023/04/21 10:48:57;;;;;;;;;;;15.65;17.47;;;;;;2670393;76;20419;-91
2023/04/21 10:52:25;;;;;;;;;;;15.76;17.34;;;;;;2670744;76;20979;-91
2023/04/21 10:55:53;;;;;;;;;;;15.96;16.25;;;;;;2671663;76;20421;-90
2023/04/21 10:59:24;;;;;;;;;;;15.99;15.59;;;;;;2671317;76;20434;-91
2023/04/21 11:02:52;;;;;;;;;;;16.10;17.19;;;;;;2671383;76;20415;-90
2023/04/21 11:06:21;;;;;;;;;;;16.15;18.88;;;;;;2672276;76;20411;-90
2023/04/21 11:09:49;;;;;;;;;;;15.92;18.96;;;;;;2671176;76;20441;-91
2023/04/21 11:13:20;;;;;;;;;;;15.77;19.54;;;;;;2671886;76;20798;-91
2023/04/21 11:16:47;;;;;;;;;;;15.74;20.11;;;;;;2671227;76;20434;-92
2023/04/21 11:20:16;;;;;;;;;;;15.85;20.12;;;;;;2670993;76;20937;-91
2023/04/21 11:23:44;;;;;;;;;;;15.89;18.28;;;;;;2672190;76;20920;-92
2023/04/21 11:27:13;;;;;;;;;;;16.04;19.05;;;;;;2671399;76;20426;-91
2023/04/21 11:30:41;;;;;;;;;;;15.96;17.56;;;;;;2671530;76;20417;-91
2023/04/21 11:34:09;;;;;;;;;;;16.05;18.12;;;;;;2671957;76;20406;-91
2023/04/21 11:37:38;;;;;;;;;;;16.13;17.70;;;;;;2671677;76;20321;-91
2023/04/21 11:41:06;;;;;;;;;;;16.22;18.09;;;;;;2671558;76;20407;-91
2023/04/21 11:44:34;;;;;;;;;;;16.13;17.33;;;;;;2670140;76;20422;-90
2023/04/21 11:48:03;;;;;;;;;;;16.16;16.90;;;;;;2670667;76;20417;-89
2023/04/21 11:51:31;;;;;;;;;;;15.93;15.47;;;;;;2670804;76;20418;-91
2023/04/21 11:54:59;;;;;;;;;;;16.10;16.64;;;;;;2671427;76;20422;-90
2023/04/21 11:58:27;;;;;;;;;;;16.13;16.90;;;;;;2671956;76;20431;-91
2023/04/21 12:02:02;;;;;;;;;;;16.18;16.57;;;;;;2670911;76;20453;-91
2023/04/21 12:05:27;;;;;;;;;;;16.34;16.66;;;;;;2671034;76;20442;-92
2023/04/21 12:08:56;;;;;;;;;;;16.34;15.38;;;;;;2672020;76;20419;-91
2023/04/21 12:12:24;;;;;;;;;;;16.34;14.84;;;;;;2672029;76;20451;-92
2023/04/21 12:15:52;;;;;;;;;;;16.35;15.39;;;;;;2670605;76;20414;-91
2023/04/21 12:19:20;;;;;;;;;;;16.44;15.79;;;;;;2671173;76;20456;-91
2023/04/21 12:22:48;;;;;;;;;;;16.54;15.01;;;;;;2672021;76;20442;-92
2023/04/21 12:26:17;;;;;;;;;;;16.64;14.05;;;;;;2670623;76;20429;-91
2023/04/21 12:29:45;;;;;;;;;;;16.58;9.71;;;;;;2670358;76;20423;-92
2023/04/21 12:33:13;;;;;;;;;;;16.66;9.70;;;;;;2672131;76;20429;-92
2023/04/21 12:36:41;;;;;;;;;;;16.70;10.03;;;;;;2672329;76;20423;-92
2023/04/21 12:40:12;;;;;;;;;;;16.61;11.20;;;;;;2671182;76;20417;-92
2023/04/21 12:43:40;;;;;;;;;;;16.70;11.97;;;;;;2671411;76;20468;-91
2023/04/21 12:47:09;;;;;;;;;;;16.69;11.73;;;;;;2671799;76;20298;-92
2023/04/21 12:50:37;;;;;;;;;;;16.78;9.98;;;;;;2671778;76;21019;-92
2023/04/21 12:54:05;;;;;;;;;;;16.85;10.34;;;;;;2672455;76;21037;-91
2023/04/21 12:57:33;;;;;;;;;;;16.89;9.72;;;;;;2671478;76;20446;-92
2023/04/21 13:01:01;;;;;;;;;;;17.01;10.88;;;;;;2671296;76;20450;-92
2023/04/21 13:04:30;;;;;;;;;;;17.08;10.04;;;;;;2671180;76;20959;-91
2023/04/21 13:07:58;;;;;;;;;;;17.20;10.75;;;;;;2671505;76;20399;-92
2023/04/21 13:11:26;;;;;;;;;;;17.15;10.75;;;;;;2671472;76;20421;-92
2023/04/21 13:14:55;;;;;;;;;;;17.22;11.11;;;;;;2671370;76;20815;-91
2023/04/21 13:18:24;;;;;;;;;;;17.40;11.63;;;;;;2671157;76;20465;-91
2023/04/21 13:21:52;;;;;;;;;;;17.51;9.94;;;;;;2671317;76;20554;-92
2023/04/21 13:25:20;;;;;;;;;;;17.66;11.13;;;;;;2671900;76;20558;-91
2023/04/21 13:28:48;;;;;;;;;;;17.62;10.33;;;;;;2671064;76;20940;-91
2023/04/21 13:32:16;;;;;;;;;;;17.60;9.10;;;;;;2671312;76;20483;-92
2023/04/21 13:35:47;;;;;;;;;;;17.72;10.70;;;;;;2671663;76;20464;-91
2023/04/21 13:39:15;;;;;;;;;;;17.90;12.36;;;;;;2671365;76;20356;-91
2023/04/21 13:42:43;;;;;;;;;;;17.97;12.58;;;;;;2670031;76;20455;-91
2023/04/21 13:46:13;;;;;;;;;;;17.94;12.49;;;;;;2671577;76;21150;-91
2023/04/21 13:49:41;;;;;;;;;;;17.90;12.36;;;;;;2670360;76;20442;-91
2023/04/21 13:53:09;;;;;;;;;;;18.10;10.99;;;;;;2670053;76;20442;-91
2023/04/21 13:56:38;;;;;;;;;;;18.14;8.58;;;;;;2669244;76;20429;-91
2023/04/21 14:00:06;;;;;;;;;;;18.22;8.56;;;;;;2670393;76;20453;-91
2023/04/21 14:03:35;;;;;;;;;;;18.25;8.79;;;;;;2670699;76;20423;-90
2023/04/21 14:07:03;;;;;;;;;;;18.35;5.97;;;;;;2669679;76;20426;-90
2023/04/21 14:10:34;;;;;;;;;;;18.53;4.54;;;;;;2668706;76;20417;-91
2023/04/21 14:14:02;;;;;;;;;;;18.58;4.34;;;;;;2670115;76;20432;-90
2023/04/21 14:17:30;;;;;;;;;;;18.61;3.40;;;;;;2671622;76;21039;-91
2023/04/21 14:20:58;;;;;;;;;;;18.62;3.56;;;;;;2671219;76;20942;-91
2023/04/21 14:24:28;;;;;;;;;;;18.78;3.79;;;;;;2671028;76;20488;-89
2023/04/21 14:27:56;;;;;;;;;;;18.85;3.73;;;;;;2671044;76;20411;-90
2023/04/21 14:31:24;;;;;;;;;;;18.86;4.76;;;;;;2671078;76;21291;-92
2023/04/21 14:34:53;;;;;;;;;;;19.07;4.38;;;;;;2672591;76;20688;-92
2023/04/21 14:38:28;;;;;;;;;;;22.11;6.83;;;;;;2671502;76;20453;-92
2023/04/21 14:41:51;;;;;;;;;;;27.51;118.53;;;;;;2670975;76;20441;-92
2023/04/21 14:45:19;;;;;;;;;;;30.91;113.77;;;;;;2669839;76;21191;-90
2023/04/21 14:48:47;;;;;;;;;;;33.12;111.71;;;;;;2671490;76;20931;-90
2023/04/21 14:52:15;;;;;;;;;;;33.63;109.86;;;;;;2670783;76;20459;-92
2023/04/21 14:55:43;;;;;;;;;;;33.58;105.09;;;;;;2670692;76;20414;-91
2023/04/21 14:59:14;;;;;;;;;;;34.09;103.38;;;;;;2673269;76;20345;-93
2023/04/21 15:02:46;;;;;;;;;;;34.47;101.89;;;;;;2672072;76;20444;-94
2023/04/21 15:06:15;;;;;;;;;;;34.65;98.29;;;;;;2673129;76;20341;-91
2023/04/21 15:09:44;;;;;;;;;;;34.83;91.47;;;;;;2673203;76;21068;-93
2023/04/21 15:13:14;;;;;;;;;;;34.94;90.83;;;;;;2672825;76;20448;-94
2023/04/21 15:16:44;;;;;;;;;;;35.26;90.42;;;;;;2674610;76;20453;-93
2023/04/21 15:20:12;;;;;;;;;;;35.11;89.27;;;;;;2668598;76;20432;-93
2023/04/21 15:23:42;;;;;;;;;;;34.70;83.36;;;;;;2669139;76;20471;-93
2023/04/21 15:27:10;;;;;;;;;;;35.40;82.90;;;;;;2675793;76;20467;-93
2023/04/21 15:30:39;;;;;;;;;;;35.53;82.29;;;;;;2677533;76;20493;-94
2023/04/21 15:34:09;;;;;;;;;;;34.75;78.61;;;;;;2673273;76;20434;-94
2023/04/21 15:37:37;;;;;;;;;;;35.75;80.88;;;;;;2676268;76;20441;-90
2023/04/21 15:41:05;;;;;;;;;;;35.22;78.82;;;;;;2673234;76;20436;-90
2023/04/21 15:44:37;;;;;;;;;;;35.37;79.33;;;;;;2673473;76;20461;-91
2023/04/21 15:48:05;;;;;;;;;;;35.20;79.40;;;;;;2680021;76;20809;-88
2023/04/21 15:51:35;;;;;;;;;;;34.88;77.18;;;;;;2679877;76;20433;-89
2023/04/21 15:55:03;;;;;;;;;;;35.54;79.59;;;;;;2677694;76;20446;-91
2023/04/21 15:58:31;;;;;;;;;;;35.28;77.41;;;;;;2673874;76;20498;-91
2023/04/21 16:01:59;;;;;;;;;;;35.49;77.42;;;;;;2675461;76;20320;-90
2023/04/21 16:05:27;;;;;;;;;;;35.11;75.36;;;;;;2674354;76;20323;-92
2023/04/21 16:08:55;;;;;;;;;;;35.09;73.81;;;;;;2674056;76;20425;-92
2023/04/21 16:12:24;;;;;;;;;;;35.47;73.17;;;;;;2674467;76;20419;-91
2023/04/21 16:15:52;;;;;;;;;;;35.72;73.47;;;;;;2675052;76;20433;-90
2023/04/21 16:19:20;;;;;;;;;;;35.78;72.54;;;;;;2675174;76;20492;-91
2023/04/21 16:22:49;;;;;;;;;;;35.50;71.41;;;;;;2674343;76;20401;-92
2023/04/21 16:26:17;;;;;;;;;;;35.48;70.01;;;;;;2673782;76;20422;-91
2023/04/21 16:29:45;;;;;;;;;;;35.83;69.39;;;;;;2673160;76;20446;-91
2023/04/21 16:33:13;;;;;;;;;;;35.97;70.07;;;;;;2672971;76;20331;-92
2023/04/21 16:36:41;;;;;;;;;;;35.51;69.44;;;;;;2674047;76;20947;-93
2023/04/21 16:40:09;;;;;;;;;;;35.13;69.39;;;;;;2672287;76;20885;-94
2023/04/21 16:43:43;;;;;;;;;;;35.13;69.36;;;;;;2672842;76;20961;-94
2023/04/21 16:47:10;;;;;;;;;;;35.23;69.60;;;;;;2674920;76;20427;-94
2023/04/21 16:50:40;;;;;;;;;;;35.08;70.19;;;;;;2675378;76;20914;-92
2023/04/21 16:54:08;;;;;;;;;;;34.19;69.19;;;;;;2674622;76;20485;-94
2023/04/21 16:57:36;;;;;;;;;;;34.05;69.84;;;;;;2675745;76;20437;-94
2023/04/21 17:01:07;;;;;;;;;;;33.80;69.89;;;;;;2673820;76;20428;-94
2023/04/21 17:04:36;;;;;;;;;;;33.87;70.79;;;;;;2673625;76;20488;-92
2023/04/21 17:08:05;;;;;;;;;;;33.47;71.61;;;;;;2671891;76;20449;-94
2023/04/21 17:11:36;;;;;;;;;;;32.93;72.54;;;;;;2671591;76;22138;-93
2023/04/21 17:15:10;;;;;;;;;;;29.52;74.57;;;;;;2671891;76;20459;-94
2023/04/21 17:18:48;;;;;;;;;;;30.60;77.05;;;;;;2671045;76;20453;-92
2023/04/21 17:22:22;;;;;;;;;;;26.10;80.69;;;;;;2673324;76;20464;-94
2023/04/21 17:25:51;;;;;;;;;;;23.10;88.01;;;;;;2680955;76;20318;-94
2023/04/21 17:29:19;;;;;;;;;;;21.50;92.21;;;;;;2677023;76;20433;-93
2023/04/21 17:32:50;;;;;;;;;;;20.66;94.75;;;;;;2671375;76;20489;-93
2023/04/21 17:36:22;;;;;;;;;;;20.03;97.37;;;;;;2673032;76;20450;-94
2023/04/21 17:40:04;;;;;;;;;;;19.44;98.90;;;;;;2671717;76;20419;-93
2023/04/21 17:43:21;;;;;;;;;;;19.09;100.19;;;;;;2671763;76;20424;-93
2023/04/21 17:46:51;;;;;;;;;;;18.77;101.29;;;;;;2671675;76;20432;-94
2023/04/21 17:50:21;;;;;;;;;;;18.43;102.69;;;;;;2671408;76;20475;-94
2023/04/21 17:53:49;;;;;;;;;;;18.18;103.89;;;;;;2671149;76;20457;-93
2023/04/21 17:57:17;;;;;;;;;;;17.85;104.71;;;;;;2671654;76;20435;-92
2023/04/21 18:00:45;;;;;;;;;;;17.60;105.69;;;;;;2671273;76;20438;-94
2023/04/21 18:04:15;;;;;;;;;;;17.31;106.91;;;;;;2673485;76;20508;-95
2023/04/21 18:07:43;;;;;;;;;;;17.08;107.49;;;;;;2671432;76;20438;-93
2023/04/21 18:11:11;;;;;;;;;;;16.88;108.07;;;;;;2670365;76;21384;-93
2023/04/21 18:14:39;;;;;;;;;;;16.64;108.58;;;;;;2670307;76;20444;-94
2023/04/21 18:18:10;;;;;;;;;;;16.44;108.99;;;;;;2670257;76;20432;-93
2023/04/21 18:21:38;;;;;;;;;;;16.22;109.65;;;;;;2670609;76;20426;-93
2023/04/21 18:25:07;;;;;;;;;;;16.05;110.28;;;;;;2670917;76;20432;-94
2023/04/21 18:28:35;;;;;;;;;;;15.90;110.74;;;;;;2670449;76;20466;-94
2023/04/21 18:32:03;;;;;;;;;;;15.68;111.03;;;;;;2670509;76;20457;-94
2023/04/21 18:35:33;;;;;;;;;;;15.53;111.35;;;;;;2670438;76;20471;-93
2023/04/21 18:39:01;;;;;;;;;;;15.36;111.87;;;;;;2670441;76;20436;-93
2023/04/21 18:42:32;;;;;;;;;;;15.18;111.94;;;;;;2670918;76;20465;-94
2023/04/21 18:45:59;;;;;;;;;;;15.04;111.96;;;;;;2670860;76;20464;-93
2023/04/21 18:49:28;;;;;;;;;;;14.94;112.61;;;;;;2670408;76;22396;-94
2023/04/21 18:52:59;;;;;;;;;;;14.86;113.22;;;;;;2671131;76;20453;-93
2023/04/21 18:56:30;;;;;;;;;;;14.75;113.30;;;;;;2671083;76;20427;-93
2023/04/21 18:59:58;;;;;;;;;;;14.65;113.39;;;;;;2671178;76;20426;-92
2023/04/21 19:03:27;;;;;;;;;;;14.48;113.51;;;;;;2668629;76;20463;-92
2023/04/21 19:06:55;;;;;;;;;;;14.36;114.47;;;;;;2668954;76;20448;-93
2023/04/21 19:10:39;;;;;;;;;;;14.27;114.67;;;;;;2671124;76;20417;-92
2023/04/21 19:13:58;;;;;;;;;;;14.12;115.09;;;;;;2671829;76;20454;-94
2023/04/21 19:17:23;;;;;;;;;;;13.99;115.14;;;;;;2672041;76;20466;-92
2023/04/21 19:20:51;;;;;;;;;;;13.90;115.27;;;;;;2671177;76;20490;-93
2023/04/21 19:24:19;;;;;;;;;;;13.79;115.44;;;;;;2670576;76;20434;-93
2023/04/21 19:27:47;;;;;;;;;;;13.68;115.72;;;;;;2669881;76;20427;-93
2023/04/21 19:31:20;;;;;;;;;;;13.60;115.96;;;;;;2669039;76;20438;-93
2023/04/21 19:34:45;;;;;;;;;;;13.53;116.34;;;;;;2669170;76;20459;-93
2023/04/21 19:38:13;;;;;;;;;;;13.46;117.64;;;;;;2669575;76;20538;-93
2023/04/21 19:41:42;;;;;;;;;;;13.23;-4.09;;;;;;2670294;76;20421;-93
2023/04/21 19:45:10;;;;;;;;;;;13.47;-0.36;;;;;;2670514;76;20460;-94
2023/04/21 19:48:38;;;;;;;;;;;13.78;-0.80;;;;;;2670530;76;20449;-95
2023/04/21 19:52:06;;;;;;;;;;;14.10;-3.68;;;;;;2672149;76;20307;-94
2023/04/21 19:55:35;;;;;;;;;;;14.17;-4.79;;;;;;2671526;76;20312;-93
2023/04/21 19:59:06;;;;;;;;;;;14.20;118.23;;;;;;2673726;76;20483;-93
2023/04/21 20:02:34;;;;;;;;;;;14.22;118.08;;;;;;2675014;76;20428;-93
2023/04/21 20:06:03;;;;;;;;;;;14.13;117.50;;;;;;2674904;76;20456;-94
2023/04/21 20:09:31;;;;;;;;;;;14.05;117.74;;;;;;2673021;76;20328;-94
2023/04/21 20:12:59;;;;;;;;;;;13.97;117.38;;;;;;2675551;76;20406;-93
2023/04/21 20:16:28;;;;;;;;;;;13.86;117.54;;;;;;2674691;76;20430;-94